This is the latest recevied weather packets stored in our database for station/object NU3S-7. If no packets are shown the sender has not sent any weather packets the latest 10 day(s).
| Time | Temp. | Humidity | Pressure | Rain* | Wind** | Luminosity | Snow |
|---|---|---|---|---|---|---|---|
| 1777585791 | 10° C | 83% | 1013.8 hPa | 0 mm | - | - | - |
| 1777585205 | 10° C | 82% | 1013.7 hPa | 0 mm | - | - | - |
| 1777584584 | 10.56° C | 82% | 1013.6 hPa | 0 mm | - | - | - |
| 1777583399 | 10.56° C | 83% | 1013.5 hPa | 0 mm | - | - | - |
| 1777580405 | 9.44° C | 88% | 1013.7 hPa | 0 mm | - | - | - |
| 1777579787 | 8.89° C | 88% | 1013.8 hPa | 0 mm | - | - | - |
| 1777578594 | 9.44° C | 88% | 1014 hPa | 0 mm | - | - | - |
| 1777577400 | 8.89° C | 89% | 1013.9 hPa | 0 mm | - | - | - |
| 1777576778 | 8.89° C | 89% | 1013.8 hPa | 0 mm | - | - | - |
| 1777576182 | 8.89° C | 89% | 1013.9 hPa | 0 mm | - | - | - |
| 1777575581 | 8.89° C | 88% | 1013.9 hPa | 0 mm | - | - | - |
| 1777574977 | 8.89° C | 88% | 1013.8 hPa | 0 mm | - | - | - |
| 1777574377 | 8.89° C | 89% | 1013.9 hPa | 0 mm | - | - | - |
| 1777573178 | 8.89° C | 89% | 1013.7 hPa | 0 mm | - | - | - |
| 1777571979 | 8.33° C | 90% | 1013.6 hPa | 0 mm | - | - | - |
| 1777570773 | 8.33° C | 91% | 1013.5 hPa | 0 mm | - | - | - |
| 1777570171 | 7.78° C | 91% | 1013.5 hPa | 0 mm | - | - | - |
| 1777569577 | 8.33° C | 92% | 1013.4 hPa | 0 mm | - | - | - |
| 1777567767 | 7.78° C | 95% | 1013.7 hPa | 0 mm | - | - | - |
| 1777566578 | 7.78° C | 96% | 1013.5 hPa | 0 mm | - | - | - |
| 1777564168 | 7.22° C | 98% | 1013.3 hPa | 0 mm | - | - | - |
| 1777562409 | 6.67° C | 99% | 1013.1 hPa | 0 mm | - | - | - |
| 1777561172 | 6.67° C | 99% | 1012.7 hPa | 0 mm | - | - | - |
| 1777560574 | 6.67° C | 99% | 1012.6 hPa | 0 mm | - | - | - |
| 1777560006 | 7.22° C | 99% | 1012.2 hPa | 0 mm | - | - | - |
* Rain since midnight (hover to see other rain measurements)
** Current wind speed in m/s (hover to see current wind gust speed)